• Join FlightAware (Why Join?)
  • Login
  • US Flag 
11:52AM EDT


 

Airport Tracker/Info


-or-


 

Live Flight TrackerFlight Track Log ✈ AAY806 ✈ 29-Jul-2013 ✈ KPIE - KSGF

Flight Track Log - Related Links

Times and Time Zones

All times are in EDT time to prevent confusion due to time zone crossing. See the AAY806 flight status page for this flight to view local times or setup timezone preferences in your user account.

Time Position Orientation Groundspeed Altitude Reporting Facility
EDT Latitude Longitude Course Direction KTS MPH feet Rate Location/Type
06:33PM 27.9333 -82.7000 24° Northeast 184 212 1,200  Level Tampa TRACON
06:34PM 27.9667 -82.6833 24° Northeast 199 229 2,500 1,200 Climbing Tampa TRACON
06:35PM 28.0333 -82.7000 348° North 266 306 3,300 1,680 Climbing Tampa TRACON
06:37PM 28.1603 -82.7372 346° North 280 322 7,300 2,280 Climbing Jacksonville Center
06:38PM 28.2375 -82.7606 345° North 280 322 9,800 1,800 Climbing Jacksonville Center
06:39PM 28.3231 -82.7769 350° North 294 338 11,000 1,260 Climbing Jacksonville Center
06:40PM 28.4253 -82.8028 347° North 333 383 12,400 1,740 Climbing Jacksonville Center
06:41PM 28.5233 -82.8619 332° Northwest 381 438 14,500 2,100 Climbing Jacksonville Center
06:42PM 28.6194 -82.9281 329° Northwest 386 444 16,700 1,800 Climbing Jacksonville Center
06:43PM 28.7197 -82.9967 329° Northwest 402 463 18,200 1,500 Climbing Jacksonville Center
06:44PM 28.8175 -83.0703 327° Northwest 415 478 19,800 1,440 Climbing Jacksonville Center
06:45PM 28.9303 -83.1511 328° Northwest 427 491 21,100 1,320 Climbing Jacksonville Center
06:46PM 29.0344 -83.2322 326° Northwest 437 503 22,500 1,260 Climbing Jacksonville Center
06:47PM 29.1406 -83.3111 327° Northwest 448 516 23,700 1,380 Climbing Jacksonville Center
06:48PM 29.2342 -83.4089 318° Northwest 459 528 25,300 1,320 Climbing Jacksonville Center
06:49PM 29.3278 -83.5022 319° Northwest 453 521 26,400 1,200 Climbing Jacksonville Center
06:50PM 29.4189 -83.6056 315° West 453 521 27,800 720 Climbing Jacksonville Center
06:51PM 29.5103 -83.6992 318° Northwest 446 513 27,900  Climbing Jacksonville Center
06:52PM 29.5994 -83.7978 316° Northwest 446 513 27,900  Level Jacksonville Center
06:53PM 29.6906 -83.8942 317° Northwest 446 513 27,900  Level Jacksonville Center
06:54PM 29.7625 -84.0122 305° West 446 513 27,900  Level Jacksonville Center
06:55PM 29.8178 -84.1375 297° West 446 513 27,900  Level Jacksonville Center
06:56PM 29.8731 -84.2628 297° West 441 507 27,900  Level Jacksonville Center
06:57PM 29.9342 -84.3906 299° West 446 513 27,900  Level Jacksonville Center
06:58PM 29.9931 -84.5186 298° West 452 520 27,900  Level Jacksonville Center
06:59PM 30.0542 -84.6444 299° West 452 520 27,900  Level Jacksonville Center
07:00PM 30.1089 -84.7583 299° West 460 529 27,900  Level Jacksonville Center
07:01PM 30.1694 -84.8819 300° West 455 524 27,900  Level Jacksonville Center
07:02PM 30.2514 -84.9847 313° West 449 517 27,900  Level Jacksonville Center
07:03PM 30.3397 -85.0803 317° Northwest 435 501 27,900  Level Jacksonville Center
07:04PM 30.4319 -85.1789 317° Northwest 435 501 27,900  Level Jacksonville Center
07:05PM 30.5200 -85.2703 318° Northwest 435 501 27,900  Level Jacksonville Center
07:06PM 30.6100 -85.3667 317° Northwest 435 501 27,900  Level Jacksonville Center
07:07PM 30.7000 -85.4631 317° Northwest 435 501 27,900  Level Jacksonville Center
07:08PM 30.7983 -85.5481 323° Northwest 435 501 27,900  Level Jacksonville Center
07:09PM 30.9031 -85.6261 327° Northwest 445 512 27,900  Level Jacksonville Center
07:10PM 31.0036 -85.7114 324° Northwest 445 512 27,900  Level Jacksonville Center
07:11PM 31.1019 -85.7967 323° Northwest 445 512 28,000  Climbing Jacksonville Center
07:12PM 31.1936 -85.8992 316° Northwest 445 512 28,000  Level Jacksonville Center
07:13PM 31.2894 -85.9922 320° Northwest 445 512 28,000  Level Jacksonville Center
07:14PM 31.4364 -86.1539 317° Northwest 455 524 28,000  Level Atlanta Center
07:15PM 31.5286 -86.2533 317° Northwest 455 524 28,000  Level Atlanta Center
07:16PM 31.6144 -86.3556 315° West 450 518 28,000  Level Atlanta Center
07:17PM 31.7083 -86.4531 319° Northwest 445 512 28,000  Level Atlanta Center
07:18PM 31.7961 -86.5533 316° Northwest 445 512 28,000  Level Atlanta Center
07:19PM 31.8881 -86.6511 318° Northwest 445 512 28,000  Level Atlanta Center
07:20PM 31.9736 -86.7517 315° West 440 506 28,000  Level Atlanta Center
07:21PM 32.0633 -86.8475 318° Northwest 440 506 28,000  Level Atlanta Center
07:22PM 32.1486 -86.9483 315° West 435 501 28,000  Level Atlanta Center
07:23PM 32.2300 -87.0319 319° Northwest 435 501 28,000  Level Atlanta Center
07:24PM 32.3153 -87.1356 314° West 435 501 28,000  Level Atlanta Center
07:25PM 32.4047 -87.2297 318° Northwest 430 495 28,000  Level Atlanta Center
07:26PM 32.4897 -87.3286 316° Northwest 430 495 28,000  Level Atlanta Center
07:28PM 32.6692 -87.5342 316° Northwest 452 520 28,000  Level Memphis Center
07:29PM 32.7631 -87.6325 319° Northwest 436 502 28,000  Level Memphis Center
07:30PM 32.8444 -87.7314 314° West 418 481 28,000  Level Memphis Center
07:31PM 32.9322 -87.8303 317° Northwest 418 481 28,000  Level Memphis Center
07:32PM 33.0197 -87.9317 316° Northwest 428 493 28,000  Level Memphis Center
07:33PM 33.1072 -88.0311 316° Northwest 428 493 28,000  Level Memphis Center
07:34PM 33.1925 -88.1331 315° West 428 493 28,000  Level Memphis Center
07:35PM 33.2819 -88.2300 318° Northwest 428 493 28,000  Level Memphis Center
07:36PM 33.3692 -88.3300 316° Northwest 428 493 28,000  Level Memphis Center
07:37PM 33.4522 -88.4325 314° West 434 499 28,000  Level Memphis Center
07:38PM 33.5414 -88.5303 318° Northwest 434 499 28,000  Level Memphis Center
07:39PM 33.6222 -88.6358 313° West 429 494 28,000  Level Memphis Center
07:40PM 33.7092 -88.7342 317° Northwest 429 494 28,000  Level Memphis Center
07:41PM 33.7792 -88.8178 315° West 429 494 28,000  Level Memphis Center
07:42PM 33.8742 -88.9211 318° Northwest 421 484 28,000  Level Memphis Center
07:43PM 33.9569 -89.0275 313° West 421 484 28,000  Level Memphis Center
07:44PM 34.0456 -89.1239 318° Northwest 426 490 28,000  Level Memphis Center
07:45PM 34.1278 -89.2256 314° West 421 484 28,000  Level Memphis Center
07:46PM 34.2206 -89.3372 315° West 426 490 28,000  Level Memphis Center
07:47PM 34.3069 -89.4419 315° West 426 490 28,000  Level Memphis Center
07:48PM 34.3892 -89.5442 314° West 429 494 28,000  Level Memphis Center
07:49PM 34.4753 -89.6442 316° Northwest 424 488 28,000  Level Memphis Center
07:50PM 34.5572 -89.7494 313° West 424 488 28,000  Level Memphis Center
07:51PM 34.6453 -89.8522 316° Northwest 424 488 28,000  Level Memphis Center
07:52PM 34.7186 -89.9503 312° West 429 494 28,000  Level Memphis Center
07:53PM 34.8067 -90.0486 317° Northwest 429 494 28,000  Level Memphis Center
07:54PM 34.8903 -90.1544 314° West 429 494 28,000  Level Memphis Center
07:55PM 34.9761 -90.2506 317° Northwest 424 488 28,000  Level Memphis Center
07:56PM 35.0658 -90.3647 314° West 424 488 28,000  Level Memphis Center
07:57PM 35.1514 -90.4689 315° West 424 488 28,000  Level Memphis Center
07:58PM 35.2325 -90.5731 314° West 419 482 28,000  Level Memphis Center
07:59PM 35.3178 -90.6778 315° West 424 488 28,000  Level Memphis Center
08:00PM 35.4008 -90.7825 314° West 424 488 28,000  Level Memphis Center
08:01PM 35.4861 -90.8847 316° Northwest 424 488 28,000  Level Memphis Center
08:02PM 35.5647 -90.9900 313° West 424 488 28,000  Level Memphis Center
08:03PM 35.6519 -91.0953 316° Northwest 429 494 28,000 -300 Level Memphis Center
08:04PM 35.7283 -91.1983 312° West 419 482 27,400 -840 Descending Memphis Center
08:05PM 35.8069 -91.3017 313° West 419 482 26,400 -1,020 Descending Memphis Center
08:06PM 35.8894 -91.4050 315° West 419 482 25,400 -1,020 Descending Memphis Center
08:07PM 35.9636 -91.5058 312° West 419 482 24,400 -720 Descending Memphis Center
08:08PM 36.0419 -91.6047 314° West 413 475 24,000 -420 Descending Memphis Center
08:09PM 36.1200 -91.7033 314° West 401 461 23,600 -720 Descending Memphis Center
08:10PM 36.1942 -91.7972 314° West 394 453 22,600 -900 Descending Memphis Center
08:11PM 36.2619 -91.8858 314° West 394 453 21,800 -900 Descending Memphis Center
08:12PM 36.3400 -91.9828 315° West 394 453 20,800 -1,020 Descending Memphis Center
08:13PM 36.4117 -92.0769 313° West 389 448 19,800 -1,080 Descending Memphis Center
08:15PM 36.5236 -92.2189 314° West 378 435 18,200 -1,080 Descending Kansas City Center
08:16PM 36.5936 -92.3214 310° West 370 426 17,200 -1,020 Descending Kansas City Center
08:17PM 36.6675 -92.4100 316° Northwest 369 425 16,200 -600 Descending Kansas City Center
08:18PM 36.7331 -92.5044 311° West 362 417 16,000 -120 Descending Kansas City Center
08:19PM 36.8053 -92.5922 316° Northwest 361 415 16,000  Level Kansas City Center
08:20PM 36.8733 -92.6869 312° West 362 417 16,000  Level Kansas City Center
08:21PM 36.9317 -92.7883 306° West 360 414 16,000 -600 Level Kansas City Center
08:22PM 36.9817 -92.8950 300° West 356 410 14,800 -1,680 Descending Kansas City Center
08:23PM 37.0439 -92.9900 309° West 352 405 12,600 -1,860 Descending Kansas City Center
08:24PM 37.1186 -93.0586 324° Northwest 336 387 11,100 -2,040 Descending Kansas City Center
08:25PM 37.1981 -93.1256 326° Northwest 307 353 8,500 -2,460 Descending Kansas City Center
08:26PM 37.2544 -93.1886 318° Northwest 287 330 6,200 -2,100 Descending Kansas City Center
08:27PM 37.3025 -93.2567 312° West 272 313 4,300 -1,620 Descending Kansas City Center
08:28PM 37.3347 -93.3283 300° West 253 291 3,000 -720 Descending Kansas City Center
08:29PM 37.3350 -93.3986 270° West 223 257 2,900 -300 Descending Kansas City Center
08:30PM 37.3078 -93.4381 229° Southwest 177 204 2,400 -540 Descending Kansas City Center
08:32PM 37.2457 -93.3886 202° Southwest  Level Estimated
08:39PM 37.2457 -93.3886 202° Southwest  Level Estimated